Time;durP1;ratioP1;P1;durP2;ratioP2;P2;SDS_P1;SDS_P2;PMS_P1;PMS_P2;Temp;Humidity;BMP_temperature;BMP_pressure;BME280_temperature;BME280_humidity;BME280_pressure;Samples;Min_cycle;Max_cycle;Signal;HPM_P1;HPM_P2
2021/05/05 00:00:16;;;;;;;1.10;0.10;;;21.50;36.10;;;;;;5066377;28;20101;-47
2021/05/05 00:02:44;;;;;;;0.17;0.00;;;21.50;36.10;;;;;;5050953;28;20033;-48
2021/05/05 00:05:11;;;;;;;0.10;0.00;;;21.40;36.10;;;;;;5040460;28;20116;-46
2021/05/05 00:07:37;;;;;;;0.75;0.00;;;21.50;36.10;;;;;;5046206;28;20025;-47
2021/05/05 00:10:04;;;;;;;0.45;0.00;;;21.40;36.00;;;;;;5051580;28;20024;-47
2021/05/05 00:12:30;;;;;;;0.40;0.10;;;21.40;36.10;;;;;;5058862;28;20029;-47
2021/05/05 00:14:56;;;;;;;0.20;0.00;;;21.50;36.10;;;;;;5055211;28;20052;-51
2021/05/05 00:17:21;;;;;;;2.97;0.00;;;21.40;36.00;;;;;;5044936;28;20076;-46
2021/05/05 00:19:47;;;;;;;0.13;0.00;;;21.40;36.00;;;;;;5063705;28;20104;-49
2021/05/05 00:22:13;;;;;;;0.70;0.00;;;21.40;36.00;;;;;;5048182;28;20049;-48
2021/05/05 00:24:39;;;;;;;0.43;0.05;;;21.40;36.10;;;;;;5038004;28;20031;-48
2021/05/05 00:27:05;;;;;;;0.40;0.00;;;21.40;36.10;;;;;;5046141;28;20479;-48
2021/05/05 00:29:30;;;;;;;0.57;0.00;;;21.40;36.00;;;;;;5059510;28;20107;-50
2021/05/05 00:31:56;;;;;;;1.38;0.10;;;21.40;36.00;;;;;;5042881;28;20156;-47
2021/05/05 00:34:21;;;;;;;0.50;0.10;;;21.40;36.00;;;;;;5060364;28;20025;-48
2021/05/05 00:36:47;;;;;;;0.30;0.00;;;21.40;36.00;;;;;;5044002;28;20490;-51
2021/05/05 00:39:13;;;;;;;0.70;0.10;;;21.40;36.10;;;;;;5057091;28;20029;-48
2021/05/05 00:41:38;;;;;;;0.68;0.00;;;21.40;36.10;;;;;;5055222;28;20032;-48
2021/05/05 00:44:04;;;;;;;0.82;0.10;;;21.40;36.10;;;;;;5052376;28;20024;-46
2021/05/05 00:46:30;;;;;;;0.95;0.00;;;21.30;36.00;;;;;;5051133;28;20674;-49
2021/05/05 00:48:56;;;;;;;1.13;0.10;;;21.30;36.10;;;;;;5054036;28;20028;-52
2021/05/05 00:51:21;;;;;;;0.63;0.00;;;21.30;36.00;;;;;;5056690;28;20241;-45
2021/05/05 00:53:47;;;;;;;2.58;0.00;;;21.30;36.00;;;;;;5057569;28;20021;-48
2021/05/05 00:56:13;;;;;;;0.10;0.00;;;21.30;36.10;;;;;;5038106;28;20056;-45
2021/05/05 00:58:39;;;;;;;0.30;0.00;;;21.30;36.10;;;;;;5055211;28;20075;-45
2021/05/05 01:01:05;;;;;;;0.20;0.00;;;21.30;36.00;;;;;;5059897;28;20032;-46
2021/05/05 01:03:31;;;;;;;1.55;0.00;;;21.30;35.90;;;;;;5043049;28;20034;-46
2021/05/05 01:05:57;;;;;;;0.30;0.00;;;21.30;36.00;;;;;;5045388;28;20047;-47
2021/05/05 01:08:23;;;;;;;1.63;0.00;;;21.30;36.00;;;;;;5048226;28;20079;-47
2021/05/05 01:10:50;;;;;;;0.25;0.10;;;21.30;36.00;;;;;;5047520;28;20704;-46
2021/05/05 01:13:17;;;;;;;0.40;0.00;;;21.30;35.90;;;;;;5055532;28;20103;-49
2021/05/05 01:15:43;;;;;;;0.10;0.00;;;21.30;36.00;;;;;;5056481;28;20020;-47
2021/05/05 01:18:09;;;;;;;1.08;0.03;;;21.20;35.90;;;;;;5049436;28;20028;-47
2021/05/05 01:20:35;;;;;;;1.48;0.10;;;21.30;36.00;;;;;;5045220;28;20021;-48
2021/05/05 01:23:00;;;;;;;1.50;0.00;;;21.20;35.90;;;;;;5039961;28;20138;-49
2021/05/05 01:25:26;;;;;;;0.52;0.00;;;21.20;36.00;;;;;;5049926;28;20009;-47
2021/05/05 01:27:52;;;;;;;0.10;0.00;;;21.20;36.00;;;;;;5054892;28;20060;-49
2021/05/05 01:30:20;;;;;;;0.30;0.00;;;21.20;36.00;;;;;;5051317;28;20033;-49
2021/05/05 01:32:52;;;;;;;0.10;0.00;;;21.20;35.90;;;;;;5041706;28;20461;-46
2021/05/05 01:35:19;;;;;;;0.20;0.00;;;21.20;35.90;;;;;;5053584;28;20150;-46
2021/05/05 01:37:47;;;;;;;0.20;0.00;;;21.20;35.90;;;;;;5046306;28;20090;-47
2021/05/05 01:40:19;;;;;;;1.02;0.00;;;21.20;35.90;;;;;;5035134;28;20029;-45
2021/05/05 01:42:44;;;;;;;;;;;21.20;35.90;;;;;;5045000;28;20025;-46
2021/05/05 01:45:11;;;;;;;0.00;0.00;;;21.10;35.80;;;;;;5054281;22;19921;-45
2021/05/05 01:47:38;;;;;;;0.43;0.10;;;21.20;35.80;;;;;;5030303;28;20022;-47
2021/05/05 01:50:04;;;;;;;0.82;0.00;;;21.10;35.90;;;;;;5031789;28;20038;-48
2021/05/05 01:52:30;;;;;;;0.30;0.00;;;21.10;35.80;;;;;;5039064;28;20709;-47
2021/05/05 01:54:55;;;;;;;0.22;0.00;;;21.10;35.80;;;;;;5030531;28;20057;-47
2021/05/05 01:57:22;;;;;;;0.10;0.00;;;21.10;35.70;;;;;;5031909;28;20028;-47
2021/05/05 01:59:49;;;;;;;0.52;0.00;;;21.10;35.80;;;;;;5031613;28;20030;-45
2021/05/05 02:02:15;;;;;;;0.10;0.00;;;21.10;35.70;;;;;;5033987;28;20033;-47
2021/05/05 02:04:41;;;;;;;1.27;0.10;;;21.10;35.70;;;;;;5031516;28;20390;-46
2021/05/05 02:07:06;;;;;;;0.15;0.00;;;21.10;35.80;;;;;;5033659;28;20125;-46
2021/05/05 02:09:32;;;;;;;0.22;0.00;;;21.10;35.90;;;;;;5031983;28;20112;-46
2021/05/05 02:11:57;;;;;;;1.48;0.00;;;21.10;35.90;;;;;;5028255;28;20526;-45
2021/05/05 02:14:23;;;;;;;0.10;0.00;;;21.10;35.90;;;;;;5031413;28;20029;-47
2021/05/05 02:16:57;;;;;;;0.25;0.00;;;21.10;35.90;;;;;;5031313;28;20018;-45
2021/05/05 02:19:23;;;;;;;0.20;0.00;;;21.10;35.90;;;;;;5032474;28;20495;-47
2021/05/05 02:21:49;;;;;;;0.77;0.00;;;21.10;35.90;;;;;;5012844;28;20149;-46
2021/05/05 02:24:15;;;;;;;0.22;0.00;;;21.10;35.90;;;;;;5031813;28;20053;-46
2021/05/05 02:26:41;;;;;;;0.50;0.00;;;21.10;35.90;;;;;;5036623;28;20385;-46
2021/05/05 02:29:07;;;;;;;0.10;0.00;;;21.10;35.80;;;;;;5031330;28;20289;-47
2021/05/05 02:31:32;;;;;;;0.47;0.00;;;21.00;35.70;;;;;;5035869;28;20587;-47
2021/05/05 02:33:58;;;;;;;0.35;0.00;;;21.00;35.80;;;;;;5031459;28;20068;-47
2021/05/05 02:36:24;;;;;;;0.73;0.00;;;21.00;35.80;;;;;;5031751;28;20037;-46
2021/05/05 02:38:49;;;;;;;0.10;0.00;;;21.00;35.80;;;;;;5031462;28;20041;-48
2021/05/05 02:41:15;;;;;;;0.30;0.00;;;21.00;35.80;;;;;;5035456;28;20021;-48
2021/05/05 02:43:41;;;;;;;0.88;0.00;;;21.00;35.80;;;;;;5038864;28;20131;-47
2021/05/05 02:46:06;;;;;;;0.10;0.00;;;21.00;35.80;;;;;;5028749;28;20060;-47
2021/05/05 02:48:32;;;;;;;0.47;0.00;;;21.00;35.80;;;;;;5043363;28;20059;-47
2021/05/05 02:50:58;;;;;;;1.50;0.10;;;21.00;35.80;;;;;;5032646;28;20532;-48
2021/05/05 02:53:23;;;;;;;0.52;0.00;;;21.00;35.80;;;;;;5038967;28;20028;-47
2021/05/05 02:55:49;;;;;;;0.73;0.00;;;21.00;35.80;;;;;;5046951;28;20546;-46
2021/05/05 02:58:14;;;;;;;0.10;0.00;;;21.00;35.90;;;;;;5043438;28;20707;-47
2021/05/05 03:00:40;;;;;;;0.40;0.00;;;21.00;35.80;;;;;;5037569;28;20036;-46
2021/05/05 03:03:05;;;;;;;0.10;0.00;;;21.00;35.90;;;;;;5035585;28;20030;-48
2021/05/05 03:05:31;;;;;;;0.20;0.00;;;21.00;35.80;;;;;;5035609;28;20033;-47
2021/05/05 03:07:56;;;;;;;1.00;0.00;;;20.90;35.80;;;;;;5053176;28;20040;-48
2021/05/05 03:10:22;;;;;;;0.32;0.00;;;21.00;35.90;;;;;;5040503;28;20041;-48
2021/05/05 03:12:48;;;;;;;0.32;0.00;;;21.00;35.80;;;;;;5041386;28;20048;-47
2021/05/05 03:15:13;;;;;;;0.20;0.00;;;21.00;35.90;;;;;;5040693;28;20025;-48
2021/05/05 03:17:39;;;;;;;0.40;0.20;;;20.90;35.80;;;;;;5042157;28;20073;-48
2021/05/05 03:20:10;;;;;;;0.20;0.00;;;21.00;35.90;;;;;;5048321;28;20033;-46
2021/05/05 03:22:36;;;;;;;0.20;0.00;;;21.00;35.90;;;;;;5054329;28;20036;-46
2021/05/05 03:25:04;;;;;;;0.47;0.00;;;20.90;35.80;;;;;;5034338;28;20079;-48
2021/05/05 03:27:30;;;;;;;0.25;0.00;;;20.90;35.80;;;;;;5040753;28;20036;-47
2021/05/05 03:29:55;;;;;;;0.45;0.00;;;20.90;35.80;;;;;;5042329;28;20040;-47
2021/05/05 03:32:21;;;;;;;0.35;0.00;;;20.90;35.80;;;;;;5041017;28;20032;-47
2021/05/05 03:34:46;;;;;;;0.20;0.00;;;20.90;35.80;;;;;;5034241;28;20021;-47
2021/05/05 03:37:12;;;;;;;0.15;0.00;;;20.90;35.80;;;;;;5051536;28;20033;-46
2021/05/05 03:39:38;;;;;;;0.22;0.00;;;20.90;35.80;;;;;;5033316;28;20037;-46
2021/05/05 03:42:04;;;;;;;0.13;0.00;;;20.90;35.80;;;;;;5033935;28;20026;-46
2021/05/05 03:44:29;;;;;;;0.10;0.00;;;20.90;35.80;;;;;;5028193;28;20388;-47
2021/05/05 03:46:55;;;;;;;0.47;0.10;;;20.90;35.90;;;;;;5036768;28;20109;-47
2021/05/05 03:49:21;;;;;;;0.20;0.10;;;20.90;35.80;;;;;;5033925;28;20071;-48
2021/05/05 03:51:47;;;;;;;0.10;0.00;;;20.90;35.80;;;;;;5030143;28;20113;-47
2021/05/05 03:54:14;;;;;;;0.30;0.00;;;20.90;35.80;;;;;;5034028;28;20029;-47
2021/05/05 03:56:40;;;;;;;1.05;0.00;;;20.90;35.80;;;;;;5033752;28;20038;-48
2021/05/05 03:59:05;;;;;;;0.10;0.00;;;20.90;35.70;;;;;;5041585;28;20113;-47
2021/05/05 04:01:31;;;;;;;0.25;0.00;;;20.90;35.70;;;;;;5028813;28;20035;-48
2021/05/05 04:03:57;;;;;;;0.30;0.00;;;20.80;35.70;;;;;;5050859;28;20032;-48
2021/05/05 04:06:22;;;;;;;0.20;0.00;;;20.80;35.70;;;;;;5041002;28;20064;-47
2021/05/05 04:08:48;;;;;;;0.10;0.00;;;20.90;35.80;;;;;;5033889;28;20052;-47
2021/05/05 04:11:13;;;;;;;0.52;0.00;;;20.90;35.80;;;;;;5024343;28;20067;-45
2021/05/05 04:13:39;;;;;;;0.10;0.00;;;20.80;35.70;;;;;;5033184;28;20040;-46
2021/05/05 04:16:05;;;;;;;0.10;0.00;;;20.80;35.70;;;;;;5027962;28;20112;-48
2021/05/05 04:18:30;;;;;;;0.10;0.00;;;20.80;35.70;;;;;;5033073;28;20029;-45
2021/05/05 04:21:00;;;;;;;0.88;0.10;;;20.80;35.60;;;;;;5033027;28;20029;-47
2021/05/05 04:23:26;;;;;;;0.20;0.00;;;20.80;35.60;;;;;;5041380;28;20060;-47
2021/05/05 04:25:52;;;;;;;1.02;0.00;;;20.80;35.60;;;;;;5037122;28;20040;-48
2021/05/05 04:28:17;;;;;;;0.25;0.00;;;20.80;35.60;;;;;;5037676;28;20032;-46
2021/05/05 04:30:43;;;;;;;0.80;0.10;;;20.80;35.60;;;;;;5029427;28;20037;-46
2021/05/05 04:33:09;;;;;;;0.10;0.00;;;20.80;35.60;;;;;;5033710;28;20121;-47
2021/05/05 04:35:35;;;;;;;0.10;0.00;;;20.80;35.60;;;;;;5033192;28;20022;-47
2021/05/05 04:38:01;;;;;;;1.55;0.00;;;20.80;35.60;;;;;;5042934;28;20025;-46
2021/05/05 04:40:26;;;;;;;0.57;0.10;;;20.80;35.70;;;;;;5037858;28;20034;-46
2021/05/05 04:42:52;;;;;;;0.30;0.00;;;20.80;35.70;;;;;;5033587;28;20060;-46
2021/05/05 04:45:17;;;;;;;0.38;0.10;;;20.70;35.60;;;;;;5032525;28;20029;-48
2021/05/05 04:47:43;;;;;;;0.17;0.00;;;20.80;35.70;;;;;;5036923;28;20040;-46
2021/05/05 04:50:10;;;;;;;0.20;0.00;;;20.80;35.70;;;;;;5032679;28;20025;-47
2021/05/05 04:52:37;;;;;;;0.25;0.00;;;20.80;35.70;;;;;;5033917;28;20049;-46
2021/05/05 04:55:03;;;;;;;0.30;0.00;;;20.70;35.70;;;;;;5032757;28;20033;-47
2021/05/05 04:57:29;;;;;;;0.20;0.00;;;20.80;35.70;;;;;;5034892;28;20037;-45
2021/05/05 04:59:55;;;;;;;0.65;0.00;;;20.70;35.70;;;;;;5032563;28;20034;-45
2021/05/05 05:02:20;;;;;;;0.10;0.00;;;20.70;35.70;;;;;;5034535;28;20029;-46
2021/05/05 05:04:46;;;;;;;2.88;0.00;;;20.70;35.70;;;;;;5029946;28;20124;-45
2021/05/05 05:07:12;;;;;;;0.20;0.00;;;20.70;35.60;;;;;;5034782;28;20033;-45
2021/05/05 05:09:37;;;;;;;0.45;0.03;;;20.70;35.60;;;;;;5032660;28;20120;-48
2021/05/05 05:12:03;;;;;;;0.13;0.00;;;20.70;35.60;;;;;;5037149;28;20105;-47
2021/05/05 05:14:29;;;;;;;0.20;0.00;;;20.70;35.70;;;;;;5034508;28;20052;-47
2021/05/05 05:16:56;;;;;;;1.15;0.00;;;20.70;35.60;;;;;;5039485;28;20464;-46
2021/05/05 05:19:22;;;;;;;0.20;0.10;;;20.70;35.60;;;;;;5027345;28;20030;-47
2021/05/05 05:21:47;;;;;;;0.00;0.00;;;20.70;35.60;;;;;;5032544;28;20024;-48
2021/05/05 05:24:13;;;;;;;0.15;0.00;;;20.70;35.70;;;;;;5050520;28;20040;-46
2021/05/05 05:26:38;;;;;;;1.13;0.10;;;20.70;35.60;;;;;;5032341;28;20056;-47
2021/05/05 05:29:04;;;;;;;0.10;0.00;;;20.70;35.60;;;;;;5038184;28;20045;-46
2021/05/05 05:31:30;;;;;;;0.13;0.05;;;20.70;35.60;;;;;;5042360;28;20040;-47
2021/05/05 05:33:56;;;;;;;0.35;0.00;;;20.70;35.60;;;;;;5050505;28;20029;-44
2021/05/05 05:36:21;;;;;;;0.57;0.10;;;20.70;35.60;;;;;;5044389;28;20025;-46
2021/05/05 05:38:47;;;;;;;0.30;0.00;;;20.70;35.60;;;;;;5031718;28;20067;-46
2021/05/05 05:41:12;;;;;;;0.38;0.00;;;20.70;35.60;;;;;;5038543;28;20037;-44
2021/05/05 05:43:38;;;;;;;0.30;0.00;;;20.70;35.60;;;;;;5041415;28;20050;-46
2021/05/05 05:46:04;;;;;;;0.20;0.00;;;20.70;35.60;;;;;;5036850;28;20090;-46
2021/05/05 05:48:30;;;;;;;0.30;0.10;;;20.70;35.70;;;;;;5033463;28;20029;-47
2021/05/05 05:50:56;;;;;;;0.08;0.00;;;20.80;35.80;;;;;;5034283;28;20043;-47
2021/05/05 05:53:22;;;;;;;1.00;0.05;;;21.00;35.60;;;;;;5043695;28;20498;-46
2021/05/05 05:55:48;;;;;;;0.10;0.00;;;21.00;35.30;;;;;;5035006;28;20032;-47
2021/05/05 05:58:13;;;;;;;0.38;0.00;;;21.20;35.20;;;;;;5031938;28;20044;-46
2021/05/05 06:00:39;;;;;;;0.55;0.00;;;21.30;35.10;;;;;;5035438;28;20032;-47
2021/05/05 06:03:05;;;;;;;0.65;0.00;;;21.40;35.00;;;;;;5031638;28;20033;-45
2021/05/05 06:05:35;;;;;;;0.17;0.00;;;21.40;34.90;;;;;;5025193;28;20028;-48
2021/05/05 06:08:02;;;;;;;0.13;0.00;;;21.40;35.00;;;;;;5030747;28;20033;-45
2021/05/05 06:10:28;;;;;;;0.28;0.00;;;21.50;35.10;;;;;;5023383;28;20036;-46
2021/05/05 06:12:54;;;;;;;0.17;0.00;;;21.50;35.10;;;;;;5036229;28;20030;-46
2021/05/05 06:15:20;;;;;;;0.82;0.00;;;21.50;35.80;;;;;;5036261;28;20021;-46
2021/05/05 06:17:46;;;;;;;0.70;0.08;;;21.50;35.40;;;;;;5033124;28;20025;-47
2021/05/05 06:20:13;;;;;;;1.00;0.00;;;21.50;35.40;;;;;;5030646;28;20109;-47
2021/05/05 06:22:38;;;;;;;2.15;0.10;;;21.60;35.60;;;;;;5031053;28;20040;-46
2021/05/05 06:25:06;;;;;;;0.65;0.10;;;21.60;35.50;;;;;;5031527;28;20037;-48
2021/05/05 06:27:32;;;;;;;0.28;0.00;;;21.60;35.50;;;;;;5030969;28;20087;-47
2021/05/05 06:29:58;;;;;;;0.68;0.00;;;21.60;35.50;;;;;;5035929;28;20056;-46
2021/05/05 06:32:24;;;;;;;1.27;0.05;;;21.60;35.50;;;;;;5036404;28;20493;-46
2021/05/05 06:34:51;;;;;;;0.65;0.10;;;21.60;35.50;;;;;;5035100;28;20442;-47
2021/05/05 06:37:16;;;;;;;0.38;0.10;;;21.60;35.50;;;;;;5037441;28;20433;-47
2021/05/05 06:39:42;;;;;;;1.05;0.00;;;21.60;35.40;;;;;;5039475;28;20033;-47
2021/05/05 06:42:08;;;;;;;4.28;0.10;;;21.60;35.40;;;;;;5037568;28;20029;-47
2021/05/05 06:44:33;;;;;;;0.40;0.00;;;21.50;35.30;;;;;;5037622;28;20037;-46
2021/05/05 06:46:59;;;;;;;0.20;0.00;;;21.50;35.30;;;;;;5036047;28;20104;-48
2021/05/05 06:49:25;;;;;;;0.52;0.10;;;21.50;35.30;;;;;;5033969;28;20033;-46
2021/05/05 06:51:51;;;;;;;0.13;0.00;;;21.50;35.30;;;;;;5043842;28;20456;-47
2021/05/05 06:54:18;;;;;;;1.60;0.10;;;21.50;35.30;;;;;;5038615;28;20060;-47
2021/05/05 06:56:43;;;;;;;0.15;0.00;;;21.50;35.30;;;;;;5037177;28;20434;-47
2021/05/05 06:59:09;;;;;;;0.80;0.03;;;21.50;35.30;;;;;;5034344;28;20041;-48
2021/05/05 07:01:38;;;;;;;0.38;0.10;;;21.50;35.30;;;;;;5032221;28;20093;-47
2021/05/05 07:04:06;;;;;;;0.40;0.10;;;21.50;35.20;;;;;;5038460;28;20040;-46
2021/05/05 07:06:32;;;;;;;3.30;0.20;;;21.40;35.50;;;;;;5036795;28;20029;-47
2021/05/05 07:08:58;;;;;;;0.28;0.00;;;21.60;35.80;;;;;;5041335;28;20395;-49
2021/05/05 07:11:25;;;;;;;1.83;0.10;;;21.60;35.50;;;;;;5041943;28;20044;-48
2021/05/05 07:13:51;;;;;;;1.10;0.10;;;21.60;35.50;;;;;;5040529;28;20017;-48
2021/05/05 07:16:16;;;;;;;0.95;0.00;;;21.70;35.60;;;;;;5036818;28;20497;-44
2021/05/05 07:18:42;;;;;;;1.13;0.10;;;21.60;35.70;;;;;;5038498;28;20021;-48
2021/05/05 07:21:08;;;;;;;1.45;0.00;;;21.60;35.90;;;;;;5044965;28;20041;-45
2021/05/05 07:23:33;;;;;;;0.95;0.00;;;21.50;35.90;;;;;;5040713;28;20486;-47
2021/05/05 07:25:59;;;;;;;0.35;0.10;;;21.60;36.00;;;;;;5039599;28;20067;-44
2021/05/05 07:28:24;;;;;;;0.63;0.00;;;21.60;36.20;;;;;;5047136;28;20022;-46
2021/05/05 07:30:50;;;;;;;0.65;0.00;;;21.60;36.20;;;;;;5047311;28;20032;-43
2021/05/05 07:33:16;;;;;;;0.30;0.00;;;21.60;36.10;;;;;;5038488;28;20369;-51
2021/05/05 07:35:49;;;;;;;1.98;0.10;;;21.70;36.40;;;;;;5036093;28;20029;-49
2021/05/05 07:46:30;;;;;;;2.00;0.00;;;21.70;36.30;;;;;;5046097;22;20057;-50
2021/05/05 07:48:58;;;;;;;0.57;0.10;;;21.70;36.20;;;;;;5028542;28;20109;-57
2021/05/05 07:51:24;;;;;;;1.35;0.10;;;21.70;36.10;;;;;;5031354;28;20029;-58
2021/05/05 07:53:50;;;;;;;0.60;0.10;;;21.60;36.20;;;;;;5016879;28;20505;-53
2021/05/05 07:56:16;;;;;;;0.50;0.10;;;21.70;36.40;;;;;;5025814;28;20032;-50
2021/05/05 07:58:43;;;;;;;0.80;0.20;;;21.80;36.20;;;;;;5020774;28;20132;-50
2021/05/05 08:01:10;;;;;;;1.40;0.10;;;21.80;36.20;;;;;;5017018;28;20395;-53
2021/05/05 08:03:35;;;;;;;2.60;0.10;;;21.80;36.30;;;;;;5022066;28;20033;-55
2021/05/05 08:06:02;;;;;;;1.02;0.20;;;21.80;36.10;;;;;;5019102;28;20454;-56
2021/05/05 08:08:27;;;;;;;3.13;0.05;;;21.80;36.20;;;;;;5020884;28;20142;-56
2021/05/05 08:10:53;;;;;;;2.55;0.10;;;21.80;36.20;;;;;;5012425;28;20181;-54
2021/05/05 08:13:19;;;;;;;0.50;0.10;;;21.80;36.10;;;;;;5016567;28;20030;-50
2021/05/05 08:15:46;;;;;;;1.20;0.00;;;21.70;36.10;;;;;;5013907;28;20026;-52
2021/05/05 08:18:11;;;;;;;0.70;0.20;;;21.80;36.30;;;;;;5015167;28;20056;-53
2021/05/05 08:20:37;;;;;;;2.10;0.10;;;21.80;36.20;;;;;;5024508;28;20021;-51
2021/05/05 08:23:08;;;;;;;1.17;0.10;;;21.90;36.40;;;;;;5024215;28;20141;-51
2021/05/05 08:25:34;;;;;;;2.33;0.10;;;21.80;36.40;;;;;;5027174;28;20037;-50
2021/05/05 08:28:00;;;;;;;0.45;0.08;;;21.90;36.30;;;;;;5031678;28;20713;-49
2021/05/05 08:30:26;;;;;;;0.60;0.10;;;21.80;36.20;;;;;;5023682;28;20109;-49
2021/05/05 08:32:52;;;;;;;2.05;0.10;;;21.80;36.20;;;;;;5017931;28;20058;-51
2021/05/05 08:35:17;;;;;;;0.47;0.00;;;21.80;36.20;;;;;;5015091;28;20447;-52
2021/05/05 08:37:45;;;;;;;0.30;0.10;;;21.80;36.20;;;;;;5020010;28;20055;-51
2021/05/05 08:40:12;;;;;;;1.73;0.00;;;21.90;36.20;;;;;;5011567;28;20066;-52
2021/05/05 08:42:40;;;;;;;0.40;0.10;;;21.90;36.20;;;;;;5020764;28;20614;-52
2021/05/05 08:45:16;;;;;;;0.75;0.20;;;21.90;36.20;;;;;;5009007;28;20535;-50
2021/05/05 08:47:43;;;;;;;2.67;0.10;;;21.90;36.30;;;;;;5023748;28;20116;-45
2021/05/05 08:50:10;;;;;;;2.35;0.30;;;21.90;36.50;;;;;;5012379;28;20040;-52
2021/05/05 08:52:38;;;;;;;0.65;0.10;;;21.90;36.60;;;;;;5012115;28;20386;-52
2021/05/05 08:55:04;;;;;;;1.27;0.10;;;21.90;36.50;;;;;;5014298;28;20070;-50
2021/05/05 08:57:31;;;;;;;0.50;0.10;;;22.00;37.00;;;;;;5019209;28;20403;-52
2021/05/05 08:59:57;;;;;;;1.05;0.20;;;22.00;36.30;;;;;;5017225;28;20094;-51
2021/05/05 09:02:23;;;;;;;3.45;0.10;;;22.00;36.30;;;;;;5012190;28;20049;-49
2021/05/05 09:04:59;;;;;;;2.47;0.10;;;22.00;36.30;;;;;;5013041;28;20061;-53
2021/05/05 09:07:34;;;;;;;0.80;0.10;;;22.00;36.40;;;;;;5010356;28;20018;-53
2021/05/05 09:10:03;;;;;;;2.80;0.20;;;21.90;36.50;;;;;;5003157;28;20042;-47
2021/05/05 09:12:29;;;;;;;2.30;0.10;;;21.90;36.50;;;;;;5002211;28;20161;-48
2021/05/05 09:14:56;;;;;;;1.05;0.10;;;21.90;36.60;;;;;;5018370;28;20061;-50
2021/05/05 09:17:25;;;;;;;0.88;0.20;;;21.90;36.60;;;;;;5015941;28;20026;-55
2021/05/05 09:20:03;;;;;;;2.15;0.10;;;21.90;36.60;;;;;;5017315;28;20783;-49
2021/05/05 09:22:34;;;;;;;3.20;0.20;;;21.90;36.50;;;;;;5014373;28;20048;-50
2021/05/05 09:25:00;;;;;;;1.33;0.10;;;21.90;36.40;;;;;;5010259;28;20164;-44
2021/05/05 09:27:25;;;;;;;1.17;0.10;;;21.90;36.50;;;;;;5010655;28;20109;-56
2021/05/05 09:29:51;;;;;;;1.05;0.20;;;21.90;36.50;;;;;;5010575;28;20048;-53
2021/05/05 09:32:19;;;;;;;0.88;0.10;;;22.00;36.40;;;;;;5011080;28;20022;-52
2021/05/05 09:35:02;;;;;;;0.50;0.10;;;22.00;36.40;;;;;;5008787;28;20152;-49
2021/05/05 09:37:28;;;;;;;1.00;0.10;;;21.90;36.30;;;;;;5008328;28;20116;-50
2021/05/05 09:40:10;;;;;;;1.02;0.10;;;21.90;36.40;;;;;;5014582;28;20034;-51
2021/05/05 09:42:36;;;;;;;;;;;21.90;36.40;;;;;;5012190;28;20037;-50
2021/05/05 09:45:11;;;;;;;2.42;0.45;;;21.90;36.40;;;;;;5008807;28;19909;-46
2021/05/05 09:47:55;;;;;;;1.00;0.20;;;21.90;36.40;;;;;;5010767;28;20395;-47
2021/05/05 09:50:46;;;;;;;1.75;0.10;;;21.90;36.50;;;;;;5011876;28;20057;-48
2021/05/05 09:53:16;;;;;;;7.32;0.20;;;21.90;36.40;;;;;;5010459;28;20022;-44
2021/05/05 09:55:44;;;;;;;1.75;0.13;;;22.00;36.30;;;;;;5009297;28;20030;-45
2021/05/05 09:58:26;;;;;;;0.60;0.10;;;21.90;36.40;;;;;;5005883;28;20110;-46
2021/05/05 10:01:03;;;;;;;;;;;21.90;36.30;;;;;;5005746;28;20034;-46
2021/05/05 10:03:45;;;;;;;0.40;0.10;;;21.90;36.40;;;;;;5006151;28;19910;-48
2021/05/05 10:06:32;;;;;;;1.48;0.10;;;21.90;36.40;;;;;;5005088;28;20061;-47
2021/05/05 10:09:09;;;;;;;0.50;0.10;;;21.90;36.20;;;;;;5012575;28;20120;-47
2021/05/05 10:11:40;;;;;;;0.55;0.00;;;21.90;36.20;;;;;;5012105;28;20506;-48
2021/05/05 10:14:07;;;;;;;1.45;0.10;;;21.90;36.20;;;;;;5009699;28;20021;-47
2021/05/05 10:16:36;;;;;;;0.40;0.10;;;22.10;36.20;;;;;;5004644;28;20033;-48
2021/05/05 10:19:04;;;;;;;0.52;0.10;;;22.20;36.60;;;;;;5009344;28;20380;-48
2021/05/05 10:21:32;;;;;;;0.82;0.10;;;22.30;36.50;;;;;;5011320;28;20030;-50
2021/05/05 10:23:59;;;;;;;0.70;0.03;;;22.40;36.10;;;;;;5010923;28;20033;-46
2021/05/05 10:26:27;;;;;;;0.47;0.08;;;22.60;36.10;;;;;;5017433;28;20100;-47
2021/05/05 10:28:54;;;;;;;0.70;0.00;;;22.70;36.10;;;;;;5011526;28;20104;-50
2021/05/05 10:31:27;;;;;;;1.30;0.10;;;22.70;36.10;;;;;;5012454;28;20030;-47
2021/05/05 10:33:57;;;;;;;0.30;0.03;;;22.80;35.80;;;;;;5005627;28;20034;-48
2021/05/05 10:36:34;;;;;;;0.65;0.17;;;22.90;35.90;;;;;;5009189;28;20038;-48
2021/05/05 10:39:04;;;;;;;1.50;0.08;;;22.90;35.70;;;;;;5010503;28;20112;-50
2021/05/05 10:41:30;;;;;;;0.57;0.00;;;22.90;35.70;;;;;;5017428;28;20444;-54
2021/05/05 10:44:02;;;;;;;1.13;0.10;;;22.90;35.80;;;;;;5014121;28;20053;-48
2021/05/05 10:46:29;;;;;;;0.32;0.10;;;22.90;35.80;;;;;;5019069;28;20664;-44
2021/05/05 10:49:11;;;;;;;0.65;0.20;;;22.90;35.70;;;;;;5015394;28;20033;-49
2021/05/05 10:51:46;;;;;;;0.40;0.10;;;23.00;35.80;;;;;;5017811;28;20034;-48
2021/05/05 10:54:17;;;;;;;0.32;0.00;;;23.00;35.80;;;;;;5010260;28;20026;-48
2021/05/05 10:57:03;;;;;;;0.40;0.10;;;23.10;35.80;;;;;;5008348;28;20026;-47
2021/05/05 10:59:28;;;;;;;1.20;0.00;;;23.10;35.60;;;;;;5017398;28;20118;-49
2021/05/05 11:01:54;;;;;;;0.40;0.10;;;23.10;35.70;;;;;;5010865;28;20037;-48
2021/05/05 11:04:19;;;;;;;2.65;0.10;;;23.10;35.80;;;;;;5007530;28;20030;-42
2021/05/05 11:06:54;;;;;;;0.40;0.10;;;23.10;35.90;;;;;;5006043;28;20034;-47
2021/05/05 11:09:20;;;;;;;0.30;0.00;;;23.10;36.00;;;;;;5007709;28;20088;-49
2021/05/05 11:11:48;;;;;;;2.47;0.10;;;23.10;36.10;;;;;;5018159;28;20395;-52
2021/05/05 11:14:23;;;;;;;0.20;0.00;;;23.00;36.00;;;;;;5014101;28;20079;-51
2021/05/05 11:16:55;;;;;;;0.30;0.03;;;23.00;36.20;;;;;;5017353;28;20037;-49
2021/05/05 11:19:46;;;;;;;0.88;0.10;;;23.00;36.30;;;;;;5010774;28;20022;-46
2021/05/05 11:22:23;;;;;;;0.50;0.00;;;22.90;36.20;;;;;;5010471;28;20033;-48
2021/05/05 11:24:50;;;;;;;0.25;0.00;;;22.90;36.40;;;;;;5029420;28;20022;-47
2021/05/05 11:27:17;;;;;;;0.30;0.00;;;22.90;36.40;;;;;;5021736;28;20097;-51
2021/05/05 11:29:51;;;;;;;1.02;0.15;;;22.90;36.40;;;;;;5014899;28;20121;-55
2021/05/05 11:32:23;;;;;;;0.10;0.00;;;22.90;36.30;;;;;;5035970;28;20025;-52
2021/05/05 11:34:49;;;;;;;0.30;0.00;;;22.80;36.50;;;;;;5018492;28;20026;-53
2021/05/05 11:37:20;;;;;;;0.38;0.00;;;22.90;36.70;;;;;;5014500;28;20026;-52
2021/05/05 11:39:50;;;;;;;0.73;0.00;;;22.90;36.60;;;;;;5014818;28;20060;-48
2021/05/05 11:42:20;;;;;;;1.13;0.10;;;22.90;36.70;;;;;;5015002;28;20026;-49
2021/05/05 11:44:49;;;;;;;1.27;0.03;;;22.90;36.50;;;;;;5011423;28;20021;-51
2021/05/05 11:47:20;;;;;;;0.60;0.00;;;22.80;36.70;;;;;;5016399;28;20422;-49
2021/05/05 11:49:52;;;;;;;0.22;0.10;;;22.80;36.60;;;;;;5021841;28;20026;-45
2021/05/05 11:52:26;;;;;;;0.20;0.00;;;22.80;36.60;;;;;;5020284;28;20026;-45
2021/05/05 11:54:56;;;;;;;1.20;0.08;;;22.80;36.50;;;;;;5014042;28;20045;-46
2021/05/05 11:57:28;;;;;;;2.40;0.10;;;22.80;36.70;;;;;;5019665;28;20022;-50
2021/05/05 11:59:54;;;;;;;0.30;0.03;;;22.80;36.90;;;;;;5016054;28;20522;-46
2021/05/05 12:02:21;;;;;;;0.30;0.10;;;22.80;36.80;;;;;;5010170;28;20041;-50
2021/05/05 12:04:48;;;;;;;2.55;0.10;;;22.80;36.50;;;;;;5010681;28;20033;-50
2021/05/05 12:07:20;;;;;;;0.30;0.03;;;22.80;36.60;;;;;;5016883;28;20148;-51
2021/05/05 12:09:46;;;;;;;0.95;0.10;;;22.70;36.60;;;;;;5017776;28;20042;-51
2021/05/05 12:12:22;;;;;;;0.70;0.10;;;22.80;36.60;;;;;;5017586;28;20067;-50
2021/05/05 12:14:53;;;;;;;1.20;0.20;;;22.70;36.70;;;;;;5013444;28;20029;-50
2021/05/05 12:19:52;;;;;;;4.53;0.10;;;22.80;36.60;;;;;;5014559;28;20033;-49
2021/05/05 12:22:18;;;;;;;0.47;0.10;;;22.80;36.50;;;;;;5018903;28;20032;-49
2021/05/05 12:25:07;;;;;;;0.60;0.00;;;22.80;36.40;;;;;;5016221;28;20029;-45
2021/05/05 12:27:33;;;;;;;0.60;0.00;;;22.80;36.50;;;;;;5012002;28;20036;-51
2021/05/05 12:30:00;;;;;;;0.47;0.10;;;22.80;36.40;;;;;;5013842;28;20509;-48
2021/05/05 12:32:45;;;;;;;0.30;0.00;;;22.80;36.50;;;;;;5009171;28;20025;-45
2021/05/05 12:35:19;;;;;;;0.40;0.10;;;22.80;36.50;;;;;;5014638;28;20430;-40
2021/05/05 12:37:45;;;;;;;0.32;0.00;;;22.80;36.40;;;;;;5014106;28;20030;-46
2021/05/05 12:40:11;;;;;;;0.60;0.10;;;22.80;36.50;;;;;;5017352;28;20395;-47
2021/05/05 12:42:37;;;;;;;0.28;0.10;;;22.80;36.60;;;;;;5016880;28;20395;-45
2021/05/05 12:45:14;;;;;;;0.30;0.10;;;22.80;36.60;;;;;;5012050;28;20030;-44
2021/05/05 12:47:41;;;;;;;2.50;0.10;;;22.80;36.60;;;;;;5008518;28;20080;-46
2021/05/05 12:50:09;;;;;;;0.50;0.10;;;22.80;36.60;;;;;;5010852;28;20571;-49
2021/05/05 12:52:37;;;;;;;0.45;0.10;;;22.80;36.50;;;;;;5015327;28;20059;-49
2021/05/05 12:55:26;;;;;;;2.83;0.10;;;22.70;36.50;;;;;;5012315;28;20062;-47
2021/05/05 12:58:09;;;;;;;2.40;0.10;;;22.70;36.60;;;;;;5016288;28;20034;-45
2021/05/05 13:00:37;;;;;;;0.98;0.10;;;22.70;36.60;;;;;;5014660;28;20117;-47